Weather at Elverum Starmoen Airport

Public forecast

Using degrees Celsius for public forecast. Weather courtesy of forecast.io.

Closest aviation weather report (METAR) to Elverum Starmoen Airport

Closest report is Oslo Airport, Gardermoen, 44.5 nm (82.5 km) SSW. Retrieved 2022/05/26 16:50 UTC (33 minutes ago):

ENGM 261650Z 36008KT 9999 VCSH FEW020CB FEW030 SCT045 11/06 Q1000 NOSIG

Closest aviation forecast (TAF) to Elverum Starmoen Airport

Closest forecast is Oslo Airport, Gardermoen, 44.5 nm (82.5 km) SSW. Retrieved 2022/05/26 12:59 UTC (4 hours ago):

TAF ENGM 261100Z 2612/2712 02008KT 9999 FEW015 BKN040 TEMPO 2612/2616 SHRA SCT020CB BKN040 PROB30 TEMPO 2614/2616 TSRA